createdAt,value
2018-06-19T00:01:38.214Z,16.40
2018-06-19T00:04:07.042Z,16.40
2018-06-19T00:06:35.808Z,16.50
2018-06-19T00:09:06.450Z,16.40
2018-06-19T00:11:35.193Z,16.40
2018-06-19T00:14:04.154Z,16.40
2018-06-19T00:16:33.025Z,16.40
2018-06-19T00:19:02.349Z,16.40
2018-06-19T00:21:35.392Z,16.40
2018-06-19T00:24:04.323Z,16.40
2018-06-19T00:26:33.129Z,16.40
2018-06-19T00:29:02.111Z,16.40
2018-06-19T00:31:30.898Z,16.40
2018-06-19T00:33:59.678Z,16.40
2018-06-19T00:36:28.446Z,16.40
2018-06-19T00:38:57.209Z,16.40
2018-06-19T00:41:25.978Z,16.40
2018-06-19T00:43:54.745Z,16.40
2018-06-19T00:46:25.921Z,16.40
2018-06-19T00:48:54.729Z,16.30
2018-06-19T00:51:23.482Z,16.40
2018-06-19T00:53:52.242Z,16.30
2018-06-19T00:56:32.242Z,16.40
2018-06-19T00:59:01.006Z,16.40
2018-06-19T01:01:29.801Z,16.40
2018-06-19T01:03:58.574Z,16.50
2018-06-19T01:06:27.360Z,16.50
2018-06-19T01:08:56.118Z,16.50
2018-06-19T01:11:24.881Z,16.50
2018-06-19T01:13:53.690Z,16.50
2018-06-19T01:16:22.458Z,16.50
2018-06-19T01:18:51.222Z,16.50
2018-06-19T01:21:20.018Z,16.50
2018-06-19T01:23:48.774Z,16.50
2018-06-19T01:26:18.413Z,16.60
2018-06-19T01:28:47.170Z,16.50
2018-06-19T01:31:15.918Z,16.50
2018-06-19T01:33:44.809Z,16.50
2018-06-19T01:36:13.742Z,16.50
2018-06-19T01:38:42.530Z,16.50
2018-06-19T01:41:11.311Z,16.50
2018-06-19T01:43:40.130Z,16.50
2018-06-19T01:46:08.885Z,16.50
2018-06-19T01:48:37.637Z,16.50
2018-06-19T01:51:06.394Z,16.50
2018-06-19T01:53:35.210Z,16.50
2018-06-19T01:56:03.969Z,16.50
2018-06-19T01:58:32.730Z,16.30
2018-06-19T02:01:01.515Z,16.10
2018-06-19T02:03:30.274Z,16.00
2018-06-19T02:05:59.062Z,15.90
2018-06-19T02:08:27.815Z,15.90
2018-06-19T02:10:56.562Z,16.00
2018-06-19T02:13:25.331Z,16.00
2018-06-19T02:15:54.085Z,16.00
2018-06-19T02:18:22.850Z,16.00
2018-06-19T02:20:51.693Z,16.10
2018-06-19T02:23:20.454Z,16.10
2018-06-19T02:25:49.234Z,16.10
2018-06-19T02:28:18.014Z,16.10
2018-06-19T02:30:46.810Z,16.20
2018-06-19T02:33:15.681Z,16.20
2018-06-19T02:35:44.455Z,16.20
2018-06-19T02:38:13.274Z,16.20
2018-06-19T02:40:42.184Z,16.20
2018-06-19T02:43:10.890Z,16.30
2018-06-19T02:45:39.746Z,16.20
2018-06-19T02:48:08.522Z,16.30
2018-06-19T02:50:37.347Z,16.30
2018-06-19T02:53:06.224Z,16.30
2018-06-19T02:55:34.994Z,16.30
2018-06-19T02:58:03.799Z,16.30
2018-06-19T03:00:32.574Z,16.30
2018-06-19T03:03:01.338Z,16.30
2018-06-19T03:05:30.102Z,16.30
2018-06-19T03:07:58.881Z,16.40
2018-06-19T03:10:27.666Z,16.40
2018-06-19T03:12:56.438Z,16.40
2018-06-19T03:15:25.211Z,16.40
2018-06-19T03:17:53.930Z,16.40
2018-06-19T03:20:22.746Z,16.40
2018-06-19T03:22:51.954Z,16.30
2018-06-19T03:25:20.714Z,16.40
2018-06-19T03:27:49.482Z,16.40
2018-06-19T03:30:18.305Z,16.50
2018-06-19T03:32:47.083Z,16.50
2018-06-19T03:35:15.905Z,16.50
2018-06-19T03:37:44.666Z,16.50
2018-06-19T03:42:41.786Z,16.60
2018-06-19T03:45:10.538Z,16.50
2018-06-19T03:47:39.314Z,16.50
2018-06-19T03:50:08.066Z,16.60
2018-06-19T03:52:36.830Z,16.50
2018-06-19T03:55:05.956Z,16.60
2018-06-19T03:57:34.734Z,16.60
2018-06-19T04:00:03.694Z,16.60
2018-06-19T04:02:32.458Z,16.60
2018-06-19T04:05:01.254Z,16.60
2018-06-19T04:07:30.042Z,16.60
2018-06-19T04:09:58.806Z,16.60
2018-06-19T04:14:56.014Z,16.60
2018-06-19T04:17:27.762Z,16.60
2018-06-19T04:19:57.880Z,16.60
2018-06-19T04:22:28.242Z,16.70
2018-06-19T04:24:57.510Z,16.70
2018-06-19T04:27:26.372Z,16.70
2018-06-19T04:29:55.140Z,16.80
2018-06-19T04:32:23.906Z,16.70
2018-06-19T04:34:52.816Z,16.80
2018-06-19T04:37:21.618Z,16.80
2018-06-19T04:39:50.402Z,16.80
2018-06-19T04:42:19.170Z,16.80
2018-06-19T04:44:47.967Z,16.70
2018-06-19T04:47:16.787Z,16.70
2018-06-19T04:49:45.555Z,16.70
2018-06-19T04:52:14.368Z,16.70
2018-06-19T04:54:49.938Z,16.70
2018-06-19T04:57:18.714Z,16.60
2018-06-19T04:59:47.465Z,16.50
2018-06-19T05:02:16.244Z,16.60
2018-06-19T05:04:45.023Z,16.50
2018-06-19T05:07:13.781Z,16.60
2018-06-19T05:09:42.573Z,16.80
2018-06-19T05:12:11.362Z,16.80
2018-06-19T05:14:40.127Z,16.90
2018-06-19T05:17:08.907Z,17.00
2018-06-19T05:19:37.662Z,17.10
2018-06-19T05:22:06.630Z,17.10
2018-06-19T05:24:35.428Z,17.30
2018-06-19T05:27:04.259Z,17.50
2018-06-19T05:29:33.042Z,17.70
2018-06-19T05:32:02.007Z,17.50
2018-06-19T05:34:30.816Z,17.50
2018-06-19T05:36:59.582Z,17.60
2018-06-19T05:39:28.385Z,17.60
2018-06-19T05:41:57.282Z,17.70
2018-06-19T05:44:26.054Z,17.60
2018-06-19T05:46:54.853Z,17.40
2018-06-19T05:49:23.690Z,17.30
2018-06-19T05:54:20.926Z,17.00
2018-06-19T05:56:49.704Z,16.90
2018-06-19T05:59:18.464Z,16.90
2018-06-19T06:01:47.242Z,16.90
2018-06-19T06:04:16.018Z,16.90
2018-06-19T06:06:44.782Z,16.90
2018-06-19T06:09:13.585Z,16.80
2018-06-19T06:11:42.378Z,16.80
2018-06-19T06:14:11.219Z,16.70
2018-06-19T06:16:40.047Z,16.70
2018-06-19T06:19:08.855Z,16.70
2018-06-19T06:21:37.606Z,16.70
2018-06-19T06:24:06.383Z,16.60
2018-06-19T06:26:35.198Z,16.60
2018-06-19T06:29:04.280Z,16.60
2018-06-19T06:31:33.056Z,16.60
2018-06-19T06:34:01.911Z,16.60
2018-06-19T06:36:30.661Z,16.60
2018-06-19T06:38:59.450Z,16.70
2018-06-19T06:41:28.223Z,16.60
2018-06-19T06:43:57.082Z,16.60
2018-06-19T06:46:25.938Z,16.60
2018-06-19T06:48:54.716Z,16.60
2018-06-19T06:51:23.471Z,16.60
2018-06-19T06:53:52.419Z,16.60
2018-06-19T06:56:21.246Z,16.70
2018-06-19T06:58:50.010Z,16.80
2018-06-19T07:01:18.835Z,16.90
2018-06-19T07:03:47.610Z,16.80
2018-06-19T07:06:16.385Z,16.60
2018-06-19T07:08:45.167Z,16.60
2018-06-19T07:11:13.930Z,16.60
2018-06-19T07:13:42.714Z,16.60
2018-06-19T07:16:11.605Z,16.70
2018-06-19T07:18:40.394Z,16.70
2018-06-19T07:21:09.230Z,16.80
2018-06-19T07:23:38.008Z,16.70
2018-06-19T07:26:06.882Z,16.80
2018-06-19T07:28:35.658Z,16.70
2018-06-19T07:31:04.648Z,16.70
2018-06-19T07:33:33.450Z,16.70
2018-06-19T07:36:02.255Z,16.60
2018-06-19T07:38:31.047Z,16.50
2018-06-19T07:40:59.842Z,16.70
2018-06-19T07:43:28.649Z,16.80
2018-06-19T07:45:57.461Z,16.80
2018-06-19T07:48:26.237Z,16.80
2018-06-19T07:50:54.986Z,16.90
2018-06-19T07:53:23.822Z,17.00
2018-06-19T07:55:52.634Z,17.10
2018-06-19T07:58:21.451Z,17.30
2018-06-19T08:00:50.278Z,17.30
2018-06-19T08:03:19.177Z,17.30
2018-06-19T08:05:47.974Z,17.20
2018-06-19T08:08:16.751Z,17.20
2018-06-19T08:10:45.538Z,17.10
2018-06-19T08:13:14.314Z,17.10
2018-06-19T08:15:43.108Z,17.10
2018-06-19T08:18:11.910Z,17.10
2018-06-19T08:20:40.633Z,17.20
2018-06-19T08:23:09.475Z,17.10
2018-06-19T08:25:38.246Z,17.20
2018-06-19T08:28:07.050Z,17.40
2018-06-19T08:30:35.831Z,17.80
2018-06-19T08:33:04.624Z,17.70
2018-06-19T08:35:33.398Z,17.50
2018-06-19T08:38:02.177Z,17.60
2018-06-19T08:40:30.954Z,17.50
2018-06-19T08:42:59.713Z,17.20
2018-06-19T08:45:28.510Z,17.00
2018-06-19T08:47:57.337Z,16.90
2018-06-19T08:50:26.127Z,16.90
2018-06-19T08:52:55.003Z,17.10
2018-06-19T08:55:23.810Z,17.20
2018-06-19T08:57:52.630Z,17.20
2018-06-19T09:02:49.838Z,17.00
2018-06-19T09:05:18.725Z,17.20
2018-06-19T09:07:47.621Z,17.50
2018-06-19T09:10:16.746Z,17.50
2018-06-19T09:12:45.537Z,17.70
2018-06-19T09:15:14.311Z,17.50
2018-06-19T09:17:43.080Z,17.50
2018-06-19T09:20:11.948Z,17.40
2018-06-19T09:22:40.758Z,17.60
2018-06-19T09:25:09.577Z,17.70
2018-06-19T09:27:38.414Z,17.70
2018-06-19T09:30:07.282Z,17.80
2018-06-19T09:32:36.327Z,17.70
2018-06-19T09:35:05.236Z,17.80
2018-06-19T09:37:34.086Z,17.50
2018-06-19T09:40:02.862Z,17.50
2018-06-19T09:42:31.642Z,17.70
2018-06-19T09:47:28.958Z,17.90
2018-06-19T09:49:57.751Z,18.10
2018-06-19T09:52:26.716Z,18.30
2018-06-19T09:54:55.575Z,18.40
2018-06-19T09:57:24.476Z,17.90
2018-06-19T09:59:53.407Z,17.60
2018-06-19T10:02:22.377Z,17.90
2018-06-19T10:04:51.214Z,17.90
2018-06-19T10:07:21.419Z,18.00
2018-06-19T10:09:51.710Z,18.10
2018-06-19T10:12:21.128Z,18.20
2018-06-19T10:14:50.030Z,18.40
2018-06-19T10:17:18.867Z,18.30
2018-06-19T10:22:16.067Z,18.60
2018-06-19T10:24:44.835Z,18.50
2018-06-19T10:27:13.662Z,18.50
2018-06-19T10:29:42.434Z,18.20
2018-06-19T10:32:11.164Z,18.40
2018-06-19T10:34:39.930Z,18.40
2018-06-19T10:37:08.729Z,18.50
2018-06-19T10:39:37.522Z,18.50
2018-06-19T10:42:06.352Z,18.80
2018-06-19T10:44:35.218Z,19.10
2018-06-19T10:47:04.110Z,19.10
2018-06-19T10:49:32.884Z,19.70
2018-06-19T10:52:01.812Z,19.70
2018-06-19T10:54:30.603Z,19.20
2018-06-19T10:56:59.439Z,18.70
2018-06-19T10:59:28.193Z,18.60
2018-06-19T11:01:57.082Z,18.60
2018-06-19T11:04:26.167Z,18.90
2018-06-19T11:06:54.950Z,19.20
2018-06-19T11:09:23.729Z,19.20
2018-06-19T11:11:52.566Z,19.40
2018-06-19T11:14:21.407Z,19.10
2018-06-19T11:16:50.219Z,18.80
2018-06-19T11:19:19.046Z,19.00
2018-06-19T11:21:47.867Z,19.10
2018-06-19T11:24:16.702Z,19.00
2018-06-19T11:26:45.530Z,18.90
2018-06-19T11:29:14.411Z,19.20
2018-06-19T11:34:11.668Z,19.40
2018-06-19T11:36:40.666Z,19.10
2018-06-19T11:39:12.483Z,19.00
2018-06-19T11:41:41.654Z,19.00
2018-06-19T11:44:10.472Z,18.60
2018-06-19T11:46:39.300Z,18.30
2018-06-19T11:49:08.147Z,18.30
2018-06-19T11:51:37.046Z,18.30
2018-06-19T11:54:05.863Z,18.20
2018-06-19T11:56:34.660Z,18.30
2018-06-19T11:59:03.486Z,18.40
2018-06-19T12:01:32.347Z,18.60
2018-06-19T12:04:01.114Z,18.80
2018-06-19T12:06:29.902Z,19.00
2018-06-19T12:11:27.118Z,20.10
2018-06-19T12:13:55.882Z,20.20
2018-06-19T12:16:24.682Z,20.60
2018-06-19T12:18:53.474Z,20.70
2018-06-19T12:21:22.265Z,20.40
2018-06-19T12:23:51.103Z,19.80
2018-06-19T12:26:20.009Z,19.50
2018-06-19T12:28:48.801Z,19.20
2018-06-19T12:31:17.567Z,19.00
2018-06-19T12:36:14.775Z,18.20
2018-06-19T12:38:43.556Z,18.30
2018-06-19T12:41:12.398Z,18.50
2018-06-19T12:43:41.175Z,18.60
2018-06-19T12:46:09.959Z,18.70
2018-06-19T12:48:38.774Z,18.90
2018-06-19T12:52:16.534Z,18.80
2018-06-19T12:55:24.841Z,18.50
2018-06-19T12:57:53.654Z,18.70
2018-06-19T13:00:22.418Z,18.90
2018-06-19T13:03:02.302Z,19.60
2018-06-19T13:05:42.170Z,20.00
2018-06-19T13:08:10.904Z,20.40
2018-06-19T13:10:39.690Z,20.40
2018-06-19T13:13:29.891Z,20.50
2018-06-19T13:15:58.702Z,20.30
2018-06-19T13:18:40.139Z,20.20
2018-06-19T13:21:08.979Z,20.50
2018-06-19T13:23:37.845Z,20.50
2018-06-19T13:26:06.642Z,20.60
2018-06-19T13:29:48.826Z,21.10
2018-06-19T13:32:17.576Z,20.50
2018-06-19T13:34:46.398Z,21.00
2018-06-19T13:37:15.178Z,20.90
2018-06-19T13:39:44.601Z,20.80
2018-06-19T13:42:35.392Z,21.10
2018-06-19T13:45:06.844Z,21.70
2018-06-19T13:47:35.622Z,22.10
2018-06-19T13:50:04.498Z,22.10
2018-06-19T13:52:33.290Z,21.60
2018-06-19T13:57:50.354Z,22.10
2018-06-19T14:00:20.435Z,22.70
2018-06-19T14:02:49.320Z,22.50
2018-06-19T14:05:19.150Z,22.10
2018-06-19T14:08:24.138Z,21.50
2018-06-19T14:11:03.974Z,21.00
2018-06-19T14:13:32.775Z,21.20
2018-06-19T14:16:01.558Z,21.50
2018-06-19T14:18:30.388Z,21.80
2018-06-19T14:20:59.133Z,22.10
2018-06-19T14:23:27.930Z,22.70
2018-06-19T14:25:56.734Z,22.60
2018-06-19T14:28:25.511Z,22.10
2018-06-19T14:30:54.294Z,23.10
2018-06-19T14:33:23.078Z,23.00
2018-06-19T14:35:51.857Z,22.40
2018-06-19T14:38:20.859Z,22.70
2018-06-19T14:40:49.641Z,22.50
2018-06-19T14:43:18.423Z,22.10
2018-06-19T14:45:47.259Z,22.90
2018-06-19T14:48:16.086Z,23.20
2018-06-19T14:50:44.822Z,24.00
2018-06-19T14:53:13.590Z,23.50
2018-06-19T14:55:42.392Z,23.20
2018-06-19T14:58:11.180Z,23.50
2018-06-19T15:00:39.975Z,23.90
2018-06-19T15:03:08.837Z,23.10
2018-06-19T15:05:37.751Z,23.10
2018-06-19T15:08:06.538Z,23.30
2018-06-19T15:10:35.400Z,23.50
2018-06-19T15:13:04.174Z,23.90
2018-06-19T15:15:32.934Z,23.20
2018-06-19T15:18:01.727Z,22.80
2018-06-19T15:20:30.577Z,22.50
2018-06-19T15:22:59.332Z,23.10
2018-06-19T15:25:28.126Z,23.30
2018-06-19T15:27:56.947Z,23.20
2018-06-19T15:30:25.714Z,23.40
2018-06-19T15:32:55.525Z,24.40
2018-06-19T15:35:24.379Z,24.60
2018-06-19T15:37:53.160Z,23.40
2018-06-19T15:40:21.934Z,23.10
2018-06-19T15:42:50.718Z,23.40
2018-06-19T15:45:19.490Z,23.70
2018-06-19T15:47:48.263Z,23.50
2018-06-19T15:50:17.070Z,23.60
2018-06-19T15:52:45.845Z,23.20
2018-06-19T15:55:14.650Z,22.80
2018-06-19T15:57:43.404Z,22.60
2018-06-19T16:00:12.199Z,22.60
2018-06-19T16:02:41.102Z,22.80
2018-06-19T16:05:09.938Z,22.40
2018-06-19T16:07:43.006Z,22.20
2018-06-19T16:10:11.802Z,22.30
2018-06-19T16:12:40.586Z,22.60
2018-06-19T16:15:09.361Z,22.90
2018-06-19T16:17:38.138Z,22.70
2018-06-19T16:20:06.939Z,22.00
2018-06-19T16:22:35.766Z,21.80
2018-06-19T16:25:04.658Z,22.10
2018-06-19T16:27:33.458Z,22.80
2018-06-19T16:30:02.247Z,22.10
2018-06-19T16:32:31.034Z,22.00
2018-06-19T16:34:59.934Z,22.10
2018-06-19T16:37:28.726Z,22.30
2018-06-19T16:39:57.502Z,22.20
2018-06-19T16:42:26.288Z,22.20
2018-06-19T16:44:55.103Z,21.90
2018-06-19T16:47:24.021Z,22.00
2018-06-19T16:49:52.774Z,22.00
2018-06-19T16:52:21.565Z,22.40
2018-06-19T16:54:50.370Z,21.90
2018-06-19T16:57:19.219Z,21.60
2018-06-19T16:59:48.022Z,21.50
2018-06-19T17:02:16.996Z,22.00
2018-06-19T17:04:45.809Z,21.50
2018-06-19T17:07:14.611Z,21.20
2018-06-19T17:09:43.414Z,21.30
2018-06-19T17:12:12.565Z,21.10
2018-06-19T17:14:41.344Z,21.00
2018-06-19T17:17:10.231Z,20.90
2018-06-19T17:19:39.003Z,20.90
2018-06-19T17:22:07.843Z,20.90
2018-06-19T17:24:36.608Z,21.00
2018-06-19T17:27:05.406Z,20.50
2018-06-19T17:29:34.188Z,20.90
2018-06-19T17:32:03.180Z,20.70
2018-06-19T17:34:31.976Z,20.10
2018-06-19T17:37:00.791Z,19.80
2018-06-19T17:39:29.570Z,19.80
2018-06-19T17:41:58.366Z,19.70
2018-06-19T17:44:27.182Z,19.40
2018-06-19T17:46:55.960Z,19.20
2018-06-19T17:49:24.758Z,19.10
2018-06-19T17:51:53.547Z,19.00
2018-06-19T17:54:22.340Z,18.90
2018-06-19T17:56:51.110Z,18.90
2018-06-19T17:59:19.889Z,18.80
2018-06-19T18:01:48.706Z,18.80
2018-06-19T18:04:17.526Z,18.80
2018-06-19T18:06:46.342Z,18.70
2018-06-19T18:09:15.140Z,18.60
2018-06-19T18:11:43.986Z,18.50
2018-06-19T18:14:12.878Z,18.50
2018-06-19T18:16:41.672Z,18.40
2018-06-19T18:19:10.463Z,18.30
2018-06-19T18:21:39.327Z,18.40
2018-06-19T18:24:08.128Z,18.30
2018-06-19T18:26:36.970Z,18.30
2018-06-19T18:29:05.784Z,18.30
2018-06-19T18:31:34.602Z,18.10
2018-06-19T18:34:03.466Z,18.10
2018-06-19T18:36:32.256Z,18.00
2018-06-19T18:39:01.045Z,18.10
2018-06-19T18:41:29.831Z,18.10
2018-06-19T18:43:58.610Z,18.10
2018-06-19T18:46:27.430Z,18.00
2018-06-19T18:48:56.254Z,18.00
2018-06-19T18:51:25.024Z,18.00
2018-06-19T18:53:53.822Z,17.90
2018-06-19T18:56:22.618Z,17.90
2018-06-19T18:58:51.459Z,17.80
2018-06-19T19:01:20.326Z,17.70
2018-06-19T19:03:49.142Z,17.70
2018-06-19T19:06:17.950Z,17.70
2018-06-19T19:11:15.134Z,17.60
2018-06-19T19:13:43.943Z,17.50
2018-06-19T19:16:18.147Z,17.50
2018-06-19T19:18:52.153Z,17.50
2018-06-19T19:21:21.087Z,17.50
2018-06-19T19:23:49.953Z,17.50
2018-06-19T19:26:22.918Z,17.50
2018-06-19T19:28:56.902Z,17.40
2018-06-19T19:31:25.749Z,17.40
2018-06-19T19:33:54.578Z,17.30
2018-06-19T19:36:28.723Z,17.30
2018-06-19T19:39:02.859Z,17.20
2018-06-19T19:41:31.686Z,17.20
2018-06-19T19:44:00.499Z,17.10
2018-06-19T19:46:34.486Z,17.10
2018-06-19T19:49:03.220Z,17.10
2018-06-19T19:51:32.010Z,17.00
2018-06-19T19:54:00.834Z,17.00
2018-06-19T19:56:34.820Z,17.00
2018-06-19T19:59:03.662Z,17.00
2018-06-19T20:01:32.486Z,16.90
2018-06-19T20:04:01.274Z,16.90
2018-06-19T20:06:30.099Z,16.90
2018-06-19T20:08:58.889Z,16.90
2018-06-19T20:11:27.671Z,16.90
2018-06-19T20:13:56.482Z,16.90
2018-06-19T20:16:25.322Z,16.80
2018-06-19T20:18:54.087Z,16.80
2018-06-19T20:21:23.131Z,16.80
2018-06-19T20:23:51.880Z,16.70
2018-06-19T20:26:20.730Z,16.70
2018-06-19T20:28:49.522Z,16.60
2018-06-19T20:31:18.285Z,16.70
2018-06-19T20:33:47.083Z,16.60
2018-06-19T20:36:15.867Z,16.60
2018-06-19T20:38:44.667Z,16.60
2018-06-19T20:41:13.446Z,16.50
2018-06-19T20:43:42.257Z,16.50
2018-06-19T20:46:11.027Z,16.40
2018-06-19T20:48:39.898Z,16.40
2018-06-19T20:51:08.754Z,16.40
2018-06-19T20:53:37.550Z,16.30
2018-06-19T20:56:06.361Z,16.40
2018-06-19T20:58:35.126Z,16.30
2018-06-19T21:01:03.930Z,16.30
2018-06-19T21:03:32.749Z,16.30
2018-06-19T21:06:01.552Z,16.20
2018-06-19T21:08:39.777Z,16.20
2018-06-19T21:11:09.490Z,16.20
2018-06-19T21:13:38.482Z,16.10
2018-06-19T21:16:07.578Z,16.10
2018-06-19T21:18:36.782Z,16.00
2018-06-19T21:21:05.581Z,16.00
2018-06-19T21:23:34.402Z,15.90
2018-06-19T21:26:03.242Z,15.90
2018-06-19T21:28:31.979Z,15.80
2018-06-19T21:31:00.769Z,15.80
2018-06-19T21:33:29.542Z,15.70
2018-06-19T21:35:58.344Z,15.70
2018-06-19T21:38:27.150Z,15.70
2018-06-19T21:40:55.967Z,15.60
2018-06-19T21:43:24.778Z,15.60
2018-06-19T21:45:53.574Z,15.60
2018-06-19T21:48:22.354Z,15.50
2018-06-19T21:50:51.121Z,15.40
2018-06-19T21:53:19.927Z,15.40
2018-06-19T21:55:48.660Z,15.30
2018-06-19T21:58:17.392Z,15.30
2018-06-19T22:00:46.207Z,15.20
2018-06-19T22:03:14.990Z,15.20
2018-06-19T22:05:43.758Z,15.20
2018-06-19T22:08:12.510Z,15.10
2018-06-19T22:10:41.288Z,15.10
2018-06-19T22:13:10.075Z,15.00
2018-06-19T22:15:38.926Z,15.00
2018-06-19T22:18:07.691Z,15.00
2018-06-19T22:20:36.468Z,14.90
2018-06-19T22:23:05.238Z,14.90
2018-06-19T22:25:34.012Z,14.80
2018-06-19T22:28:02.774Z,14.80
2018-06-19T22:30:31.534Z,14.80
2018-06-19T22:33:00.302Z,14.80
2018-06-19T22:35:29.122Z,14.70
2018-06-19T22:37:58.055Z,14.60
2018-06-19T22:40:26.978Z,14.60
2018-06-19T22:42:55.776Z,14.50
2018-06-19T22:45:24.559Z,14.50
2018-06-19T22:47:53.345Z,14.50
2018-06-19T22:50:22.678Z,14.50
2018-06-19T22:52:51.483Z,14.40
2018-06-19T22:55:20.275Z,14.40
2018-06-19T22:57:49.067Z,14.40
2018-06-19T23:00:19.194Z,14.30
2018-06-19T23:02:47.998Z,14.30
2018-06-19T23:05:16.893Z,14.30
2018-06-19T23:07:45.657Z,14.30
2018-06-19T23:10:14.470Z,14.30
2018-06-19T23:12:43.226Z,14.30
2018-06-19T23:15:11.994Z,14.20
2018-06-19T23:17:40.774Z,14.20
2018-06-19T23:20:09.540Z,14.20
2018-06-19T23:22:38.374Z,14.20
2018-06-19T23:25:07.156Z,14.10
2018-06-19T23:27:35.958Z,14.10
2018-06-19T23:30:04.919Z,14.10
2018-06-19T23:32:33.730Z,14.10
2018-06-19T23:35:02.578Z,14.10
2018-06-19T23:37:31.443Z,14.00
2018-06-19T23:40:00.206Z,14.00
2018-06-19T23:42:29.018Z,14.00
2018-06-19T23:44:57.773Z,14.00
2018-06-19T23:47:26.527Z,14.00
2018-06-19T23:49:55.282Z,14.00
2018-06-19T23:52:24.054Z,13.90
2018-06-19T23:54:52.826Z,14.70
2018-06-19T23:57:21.600Z,13.90
2018-06-19T23:59:50.382Z,13.90
